KBFL

Meadows Field Airport

Bakersfield, California, USA
METAR KBFL 230754Z AUTO 31009KT 10SM BKN060 OVC085 08/02 A3020 RMK AO2 RAE33 SLP224 P0000 T00780022 401610006
Observed Flight Rules
Feb-23 @ 07:54 UTC (21 minutes ago) Visual Flight Rules
Wind Visibility Clouds
310° at 9 knots 10 miles
  • Broken at 6,000' AGL
  • Overcast at 8,500' AGL
Temperatures Readings Precipitation
Current 8°C / 46°F
Dewpoint 2°C / 36°F
Humidity 66%
Altimeter 30.2" Hg
Pressure 1022.4 hPa
Elevation 151
Current Rain 0.005
METAR KBFL 230754Z AUTO 31009KT 10SM BKN060 OVC085 08/02 A3020 RMK AO2 RAE33 SLP224 P0000 T00780022 401610006
Observed Flight Rules
Feb-23 @ 07:54 UTC
(21 minutes ago)
VFR
Wind Visibility
310° at 9 knots 10 miles
Clouds
  • Broken at 6,000' AGL
  • Overcast at 8,500' AGL
Temperature Dewpoint
8°C / 46°F 2°C / 36°F
Humidity Altimeter Pressure
66% 30.2" Hg 1022.4 hPa
Current Rain
0.005